createdAt,value
2023-02-24T00:01:39.736Z,85.06
2023-02-24T00:04:10.145Z,84.43
2023-02-24T00:06:40.205Z,85.16
2023-02-24T00:09:12.498Z,84.99
2023-02-24T00:11:42.364Z,84.72
2023-02-24T00:14:11.136Z,84.42
2023-02-24T00:16:37.837Z,84.62
2023-02-24T00:19:07.587Z,84.93
2023-02-24T00:21:35.218Z,85.21
2023-02-24T00:24:02.454Z,84.54
2023-02-24T00:26:29.997Z,84.80
2023-02-24T00:29:00.131Z,84.66
2023-02-24T00:31:31.158Z,84.60
2023-02-24T00:34:00.321Z,84.84
2023-02-24T00:36:29.489Z,84.81
2023-02-24T00:38:58.832Z,84.99
2023-02-24T00:41:29.657Z,85.09
2023-02-24T00:44:06.123Z,84.91
2023-02-24T00:46:37.248Z,85.13
2023-02-24T00:49:07.740Z,84.62
2023-02-24T00:51:41.043Z,85.00
2023-02-24T00:54:08.935Z,84.96
2023-02-24T00:56:35.492Z,84.98
2023-02-24T00:59:03.543Z,84.34
2023-02-24T01:01:32.820Z,84.92
2023-02-24T01:04:07.895Z,84.77
2023-02-24T01:06:34.499Z,84.89
2023-02-24T01:09:01.307Z,85.09
2023-02-24T01:12:06.399Z,84.92
2023-02-24T01:14:34.823Z,85.05
2023-02-24T01:17:01.435Z,85.07
2023-02-24T01:19:31.606Z,85.56
2023-02-24T01:21:59.389Z,84.76
2023-02-24T01:24:26.037Z,84.86
2023-02-24T01:26:53.122Z,85.15
2023-02-24T01:29:19.879Z,85.07
2023-02-24T01:31:48.782Z,85.14
2023-02-24T01:34:17.279Z,85.27
2023-02-24T01:36:44.458Z,85.25
2023-02-24T01:39:13.696Z,85.37
2023-02-24T01:41:44.459Z,85.11
2023-02-24T01:44:15.737Z,84.93
2023-02-24T01:46:44.922Z,85.47
2023-02-24T01:49:23.558Z,84.99
2023-02-24T01:51:54.981Z,85.21
2023-02-24T01:54:26.348Z,84.69
2023-02-24T01:56:54.286Z,85.09
2023-02-24T01:59:25.016Z,84.75
2023-02-24T02:01:55.392Z,84.73
2023-02-24T02:04:28.867Z,84.70
2023-02-24T02:06:55.861Z,84.82
2023-02-24T02:09:22.769Z,85.03
2023-02-24T02:11:50.048Z,85.33
2023-02-24T02:14:20.856Z,85.06
2023-02-24T02:17:07.221Z,85.09
2023-02-24T02:20:00.442Z,85.32
2023-02-24T02:22:54.982Z,85.36
2023-02-24T02:25:33.457Z,85.18
2023-02-24T02:28:32.773Z,85.54
2023-02-24T02:31:02.539Z,84.91
2023-02-24T02:33:56.124Z,84.64
2023-02-24T02:36:34.989Z,83.98
2023-02-24T02:39:20.281Z,84.43
2023-02-24T02:41:55.974Z,84.82
2023-02-24T02:44:55.922Z,84.04
2023-02-24T02:47:26.774Z,84.40
2023-02-24T02:50:00.721Z,83.98
2023-02-24T02:52:36.092Z,83.38
2023-02-24T02:55:11.755Z,83.58
2023-02-24T02:57:47.147Z,83.37
2023-02-24T03:00:23.294Z,83.72
2023-02-24T03:02:55.371Z,83.45
2023-02-24T03:05:30.029Z,83.33
2023-02-24T03:08:00.077Z,83.35
2023-02-24T03:10:30.291Z,83.42
2023-02-24T03:13:01.423Z,83.18
2023-02-24T03:15:32.352Z,83.27
2023-02-24T03:18:10.739Z,83.45
2023-02-24T03:20:43.197Z,83.47
2023-02-24T03:23:16.846Z,83.44
2023-02-24T03:25:51.764Z,83.58
2023-02-24T03:28:30.472Z,83.58
2023-02-24T03:31:05.020Z,83.80
2023-02-24T03:33:41.029Z,83.44
2023-02-24T03:36:08.595Z,83.95
2023-02-24T03:38:38.594Z,83.91
2023-02-24T03:41:11.142Z,83.96
2023-02-24T03:43:44.976Z,83.96
2023-02-24T03:46:13.410Z,83.91
2023-02-24T03:48:45.804Z,83.81
2023-02-24T03:51:19.415Z,83.79
2023-02-24T03:54:03.817Z,83.95
2023-02-24T03:56:57.967Z,84.53
2023-02-24T03:59:34.873Z,84.22
2023-02-24T04:02:14.698Z,84.35
2023-02-24T04:04:48.357Z,84.42
2023-02-24T04:07:30.941Z,84.69
2023-02-24T04:10:23.163Z,84.77
2023-02-24T04:13:02.267Z,85.17
2023-02-24T04:15:38.441Z,84.81
2023-02-24T04:18:14.049Z,84.83
2023-02-24T04:20:43.192Z,84.82
2023-02-24T04:23:15.094Z,84.35
2023-02-24T04:25:45.985Z,84.46
2023-02-24T04:28:14.116Z,84.33
2023-02-24T04:30:44.243Z,84.56
2023-02-24T04:33:11.049Z,84.52
2023-02-24T04:35:37.898Z,84.42
2023-02-24T04:38:05.378Z,84.20
2023-02-24T04:40:32.183Z,84.49
2023-02-24T04:42:59.035Z,84.26
2023-02-24T04:45:28.957Z,84.40
2023-02-24T04:48:00.859Z,84.37
2023-02-24T04:50:33.702Z,84.10
2023-02-24T04:53:06.981Z,84.01
2023-02-24T04:55:40.224Z,84.03
2023-02-24T04:58:19.257Z,84.26
2023-02-24T05:00:49.061Z,84.18
2023-02-24T05:03:17.417Z,84.00
2023-02-24T05:05:53.904Z,84.00
2023-02-24T05:08:21.309Z,84.16
2023-02-24T05:10:48.588Z,83.81
2023-02-24T05:13:20.538Z,84.71
2023-02-24T05:15:48.251Z,84.46
2023-02-24T05:18:17.315Z,84.73
2023-02-24T05:21:07.613Z,84.42
2023-02-24T05:23:39.314Z,84.40
2023-02-24T05:26:09.257Z,84.74
2023-02-24T05:28:40.533Z,84.33
2023-02-24T05:31:10.068Z,83.69
2023-02-24T05:33:38.215Z,83.94
2023-02-24T05:36:08.944Z,84.05
2023-02-24T05:38:38.127Z,84.18
2023-02-24T05:41:07.332Z,83.76
2023-02-24T05:43:35.703Z,84.03
2023-02-24T05:46:04.302Z,83.89
2023-02-24T05:48:35.556Z,83.84
2023-02-24T05:51:05.218Z,83.68
2023-02-24T05:53:31.904Z,83.93
2023-02-24T05:56:01.307Z,83.52
2023-02-24T05:58:29.096Z,83.82
2023-02-24T06:00:56.321Z,83.74
2023-02-24T06:03:30.944Z,83.51
2023-02-24T06:05:59.280Z,83.25
2023-02-24T06:08:26.270Z,83.34
2023-02-24T06:10:53.023Z,83.42
2023-02-24T06:13:19.619Z,83.17
2023-02-24T06:15:51.635Z,83.52
2023-02-24T06:18:18.143Z,83.23
2023-02-24T06:20:51.405Z,83.30
2023-02-24T06:23:18.044Z,83.78
2023-02-24T06:25:44.801Z,83.52
2023-02-24T06:28:11.718Z,83.43
2023-02-24T06:30:38.428Z,83.19
2023-02-24T06:33:05.922Z,83.25
2023-02-24T06:35:33.451Z,83.06
2023-02-24T06:37:59.963Z,82.98
2023-02-24T06:40:26.480Z,83.59
2023-02-24T06:42:54.837Z,83.21
2023-02-24T06:45:22.423Z,83.52
2023-02-24T06:47:48.978Z,83.72
2023-02-24T06:50:23.491Z,83.48
2023-02-24T06:52:53.211Z,83.00
2023-02-24T06:55:25.848Z,83.13
2023-02-24T06:57:57.274Z,83.28
2023-02-24T07:00:36.507Z,83.03
2023-02-24T07:03:14.945Z,82.68
2023-02-24T07:05:42.501Z,83.05
2023-02-24T07:08:09.548Z,83.38
2023-02-24T07:10:36.898Z,83.18
2023-02-24T07:13:03.404Z,83.10
2023-02-24T07:15:31.985Z,83.16
2023-02-24T07:17:58.534Z,83.08
2023-02-24T07:20:26.305Z,82.90
2023-02-24T07:22:52.788Z,82.83
2023-02-24T07:25:32.755Z,82.63
2023-02-24T07:28:02.094Z,82.97
2023-02-24T07:30:30.472Z,82.64
2023-02-24T07:32:57.381Z,83.47
2023-02-24T07:35:23.996Z,83.32
2023-02-24T07:37:50.813Z,83.75
2023-02-24T07:40:18.305Z,84.06
2023-02-24T07:42:47.737Z,83.87
2023-02-24T07:45:14.733Z,84.00
2023-02-24T07:47:41.438Z,83.97
2023-02-24T07:50:14.678Z,83.76
2023-02-24T07:52:41.466Z,83.61
2023-02-24T07:55:09.472Z,83.76
2023-02-24T07:57:37.450Z,83.89
2023-02-24T08:00:18.284Z,84.15
2023-02-24T08:02:47.018Z,83.72
2023-02-24T08:05:13.812Z,83.95
2023-02-24T08:07:40.295Z,84.00
2023-02-24T08:10:14.661Z,84.54
2023-02-24T08:12:43.462Z,85.08
2023-02-24T08:15:17.541Z,85.11
2023-02-24T08:17:47.157Z,84.91
2023-02-24T08:20:14.732Z,85.24
2023-02-24T08:22:51.721Z,85.25
2023-02-24T08:25:22.636Z,85.34
2023-02-24T08:28:07.314Z,85.45
2023-02-24T08:30:38.930Z,85.75
2023-02-24T08:33:07.847Z,86.15
2023-02-24T08:35:37.458Z,85.84
2023-02-24T08:38:07.617Z,86.55
2023-02-24T08:40:37.062Z,86.57
2023-02-24T08:43:16.802Z,86.53
2023-02-24T08:45:56.494Z,86.58
2023-02-24T08:48:26.845Z,86.58
2023-02-24T08:50:57.745Z,86.76
2023-02-24T08:53:30.600Z,86.73
2023-02-24T08:56:09.575Z,87.42
2023-02-24T08:58:40.945Z,87.24
2023-02-24T09:01:24.418Z,87.35
2023-02-24T09:03:56.342Z,87.74
2023-02-24T09:06:35.211Z,87.29
2023-02-24T09:09:18.405Z,87.49
2023-02-24T09:11:49.625Z,87.68
2023-02-24T09:14:27.149Z,87.63
2023-02-24T09:17:02.293Z,88.17
2023-02-24T09:19:41.111Z,87.85
2023-02-24T09:22:31.232Z,87.46
2023-02-24T09:25:17.929Z,87.74
2023-02-24T09:27:52.181Z,87.96
2023-02-24T09:30:47.625Z,88.83
2023-02-24T09:33:20.808Z,88.99
2023-02-24T09:35:50.350Z,89.19
2023-02-24T09:38:20.056Z,89.11
2023-02-24T09:40:49.251Z,89.69
2023-02-24T09:43:24.645Z,89.74
2023-02-24T09:45:58.520Z,90.33
2023-02-24T09:48:43.627Z,90.66
2023-02-24T09:51:21.827Z,90.57
2023-02-24T09:53:54.890Z,91.37
2023-02-24T09:56:42.758Z,91.94
2023-02-24T09:59:27.266Z,91.89
2023-02-24T10:02:04.843Z,92.38
2023-02-24T10:04:49.921Z,92.75
2023-02-24T10:07:20.229Z,93.46
2023-02-24T10:10:19.431Z,93.36
2023-02-24T10:12:52.611Z,93.43
2023-02-24T10:15:56.956Z,93.77
2023-02-24T10:18:45.650Z,93.66
2023-02-24T10:21:30.937Z,94.17
2023-02-24T10:24:09.891Z,93.89
2023-02-24T10:27:00.729Z,94.26
2023-02-24T10:29:46.393Z,94.96
2023-02-24T10:32:31.883Z,95.11
2023-02-24T10:34:58.594Z,95.14
2023-02-24T10:37:29.608Z,95.57
2023-02-24T10:39:59.621Z,95.82
2023-02-24T10:42:31.830Z,95.81
2023-02-24T10:45:17.668Z,96.02
2023-02-24T11:09:52.825Z,97.40
2023-02-24T11:12:42.007Z,97.09
2023-02-24T11:15:42.816Z,97.58
2023-02-24T11:18:20.982Z,97.87
2023-02-24T11:20:53.078Z,98.06
2023-02-24T11:23:24.910Z,97.97
2023-02-24T11:25:59.188Z,97.91
2023-02-24T11:28:48.870Z,97.83
2023-02-24T11:31:35.784Z,98.24
2023-02-24T11:34:21.747Z,97.86
2023-02-24T11:37:03.018Z,98.11
2023-02-24T11:39:48.639Z,98.17
2023-02-24T11:42:24.761Z,98.03
2023-02-24T11:44:59.839Z,98.15
2023-02-24T11:47:39.032Z,98.33
2023-02-24T11:50:24.163Z,97.99
2023-02-24T11:52:54.815Z,98.37
2023-02-24T11:55:36.698Z,98.46
2023-02-24T11:58:12.717Z,98.28
2023-02-24T12:00:46.236Z,98.57
2023-02-24T12:03:29.926Z,98.75
2023-02-24T12:06:06.332Z,98.81
2023-02-24T12:08:36.383Z,99.05
2023-02-24T12:11:20.683Z,98.41
2023-02-24T12:16:48.723Z,98.24
2023-02-24T12:19:23.833Z,98.31
2023-02-24T12:21:57.367Z,98.10
2023-02-24T12:24:24.377Z,98.23
2023-02-24T12:27:09.834Z,97.68
2023-02-24T12:30:05.698Z,97.91
2023-02-24T12:32:54.384Z,97.50
2023-02-24T12:35:33.037Z,97.81
2023-02-24T12:38:05.629Z,97.25
2023-02-24T12:40:52.335Z,96.69
2023-02-24T12:43:29.908Z,95.95
2023-02-24T12:46:02.882Z,95.57
2023-02-24T12:48:57.089Z,95.30
2023-02-24T12:51:33.604Z,94.81
2023-02-24T12:54:13.001Z,93.97
2023-02-24T12:56:58.167Z,93.31
2023-02-24T12:59:28.880Z,92.89
2023-02-24T13:02:04.278Z,92.47
2023-02-24T13:04:33.799Z,92.51
2023-02-24T13:07:00.358Z,91.85
2023-02-24T13:09:45.377Z,89.68
2023-02-24T13:12:18.294Z,87.97
2023-02-24T13:14:45.855Z,87.74
2023-02-24T13:17:12.385Z,86.79
2023-02-24T13:19:41.518Z,85.99
2023-02-24T13:22:19.897Z,85.73
2023-02-24T13:24:59.799Z,85.17
2023-02-24T13:27:30.195Z,84.65
2023-02-24T13:30:01.026Z,84.23
2023-02-24T13:32:35.357Z,83.14
2023-02-24T13:35:04.851Z,83.08
2023-02-24T13:37:39.645Z,82.96
2023-02-24T13:40:16.572Z,82.83
2023-02-24T13:43:01.586Z,83.19
2023-02-24T13:45:32.522Z,84.43
2023-02-24T13:48:08.448Z,84.46
2023-02-24T13:50:57.892Z,85.48
2023-02-24T13:53:28.450Z,85.92
2023-02-24T13:56:04.327Z,86.54
2023-02-24T13:58:40.345Z,86.72
2023-02-24T14:01:14.080Z,86.83
2023-02-24T14:03:43.971Z,87.09
2023-02-24T14:06:21.000Z,87.58
2023-02-24T14:08:51.437Z,87.90
2023-02-24T14:11:18.658Z,88.22
2023-02-24T14:13:49.731Z,88.13
2023-02-24T14:16:21.979Z,88.22
2023-02-24T14:18:55.354Z,87.74
2023-02-24T14:21:25.214Z,87.94
2023-02-24T14:23:59.352Z,88.36
2023-02-24T14:26:27.275Z,87.85
2023-02-24T14:28:58.005Z,87.30
2023-02-24T14:31:26.181Z,86.42
2023-02-24T14:34:00.874Z,85.85
2023-02-24T14:36:36.014Z,85.12
2023-02-24T14:39:22.908Z,84.78
2023-02-24T14:41:51.460Z,83.75
2023-02-24T14:44:22.682Z,82.58
2023-02-24T14:46:52.500Z,82.51
2023-02-24T14:49:23.700Z,82.73
2023-02-24T14:51:57.991Z,82.75
2023-02-24T14:54:49.881Z,82.23
2023-02-24T14:57:21.931Z,82.14
2023-02-24T14:59:56.694Z,82.04
2023-02-24T15:02:32.719Z,82.07
2023-02-24T15:05:00.336Z,81.80
2023-02-24T15:07:34.458Z,81.59
2023-02-24T15:10:03.782Z,81.33
2023-02-24T15:12:33.794Z,81.49
2023-02-24T15:15:05.048Z,81.32
2023-02-24T15:17:32.600Z,81.68
2023-02-24T15:19:59.144Z,82.09
2023-02-24T15:22:34.426Z,82.10
2023-02-24T15:25:28.051Z,81.78
2023-02-24T15:28:04.112Z,82.19
2023-02-24T15:30:35.963Z,82.32
2023-02-24T15:33:07.957Z,83.13
2023-02-24T15:35:37.695Z,82.07
2023-02-24T15:38:04.489Z,82.27
2023-02-24T15:40:31.911Z,82.14
2023-02-24T15:43:08.065Z,82.04
2023-02-24T15:45:39.028Z,82.20
2023-02-24T15:48:24.411Z,81.90
2023-02-24T15:50:52.155Z,81.94
2023-02-24T15:53:20.952Z,82.08
2023-02-24T15:55:49.572Z,81.51
2023-02-24T15:58:18.897Z,81.85
2023-02-24T16:00:45.990Z,81.92
2023-02-24T16:03:12.704Z,82.32
2023-02-24T16:05:39.675Z,82.44
2023-02-24T16:08:11.753Z,83.15
2023-02-24T16:10:40.867Z,83.70
2023-02-24T16:13:17.997Z,84.19
2023-02-24T16:15:45.598Z,84.90
2023-02-24T16:18:20.953Z,85.38
2023-02-24T16:20:56.427Z,85.29
2023-02-24T16:23:27.702Z,85.86
2023-02-24T16:25:58.011Z,85.56
2023-02-24T16:28:25.479Z,85.06
2023-02-24T16:30:52.669Z,85.37
2023-02-24T16:33:22.585Z,85.25
2023-02-24T16:35:53.243Z,84.79
2023-02-24T16:38:21.455Z,85.06
2023-02-24T16:40:49.641Z,84.25
2023-02-24T16:43:17.490Z,83.43
2023-02-24T16:45:45.799Z,83.49
2023-02-24T16:48:21.312Z,83.56
2023-02-24T16:50:51.890Z,83.74
2023-02-24T16:53:20.806Z,83.81
2023-02-24T16:55:47.967Z,83.39
2023-02-24T16:58:15.318Z,84.01
2023-02-24T17:00:45.878Z,83.59
2023-02-24T17:03:20.974Z,84.49
2023-02-24T17:05:48.021Z,84.78
2023-02-24T17:08:15.840Z,84.71
2023-02-24T17:10:43.897Z,84.91
2023-02-24T17:13:13.390Z,85.54
2023-02-24T17:15:40.057Z,85.21
2023-02-24T17:18:07.486Z,85.15
2023-02-24T17:20:36.101Z,84.85
2023-02-24T17:23:02.763Z,85.51
2023-02-24T17:25:31.333Z,85.36
2023-02-24T17:27:58.438Z,85.33
2023-02-24T17:30:31.544Z,85.10
2023-02-24T17:32:58.136Z,85.05
2023-02-24T17:35:25.648Z,84.84
2023-02-24T17:37:53.395Z,84.32
2023-02-24T17:40:20.311Z,84.51
2023-02-24T17:42:47.055Z,84.39
2023-02-24T17:45:15.913Z,84.30
2023-02-24T17:47:44.003Z,84.09
2023-02-24T17:50:13.442Z,84.10
2023-02-24T17:52:40.339Z,83.99
2023-02-24T17:55:07.978Z,83.96
2023-02-24T17:57:35.314Z,84.13
2023-02-24T18:00:02.457Z,84.09
2023-02-24T18:02:29.172Z,83.93
2023-02-24T18:04:56.843Z,84.46
2023-02-24T18:07:25.284Z,83.83
2023-02-24T18:09:53.328Z,83.86
2023-02-24T18:12:21.567Z,83.58
2023-02-24T18:14:58.985Z,83.29
2023-02-24T18:17:29.382Z,82.91
2023-02-24T18:19:56.076Z,82.91
2023-02-24T18:22:23.589Z,82.53
2023-02-24T18:24:51.747Z,82.29
2023-02-24T18:27:18.600Z,81.76
2023-02-24T18:29:45.308Z,80.90
2023-02-24T18:32:13.008Z,81.04
2023-02-24T18:34:40.629Z,80.34
2023-02-24T18:37:09.200Z,80.66
2023-02-24T18:39:35.703Z,80.97
2023-02-24T18:42:02.230Z,80.83
2023-02-24T18:44:30.881Z,80.82
2023-02-24T18:46:57.384Z,81.12
2023-02-24T18:49:24.875Z,80.97
2023-02-24T18:51:51.421Z,80.66
2023-02-24T18:54:18.210Z,80.22
2023-02-24T18:56:45.716Z,80.10
2023-02-24T18:59:12.355Z,79.68
2023-02-24T19:01:41.210Z,79.76
2023-02-24T19:04:08.759Z,78.97
2023-02-24T19:06:35.974Z,79.40
2023-02-24T19:09:10.292Z,79.36
2023-02-24T19:11:39.504Z,79.51
2023-02-24T19:14:06.794Z,79.56
2023-02-24T19:16:34.308Z,79.20
2023-02-24T19:19:01.160Z,79.23
2023-02-24T19:21:30.746Z,79.06
2023-02-24T19:24:02.094Z,79.36
2023-02-24T19:26:28.985Z,79.24
2023-02-24T19:28:57.523Z,79.82
2023-02-24T19:31:26.797Z,79.63
2023-02-24T19:33:56.794Z,79.98
2023-02-24T19:36:24.609Z,79.78
2023-02-24T19:38:52.226Z,79.82
2023-02-24T19:41:19.484Z,79.63
2023-02-24T19:43:46.173Z,79.26
2023-02-24T19:46:14.198Z,78.61
2023-02-24T19:48:41.407Z,78.20
2023-02-24T19:51:09.420Z,78.28
2023-02-24T19:53:36.108Z,78.33
2023-02-24T19:56:02.949Z,78.43
2023-02-24T19:58:30.656Z,77.92
2023-02-24T20:01:04.605Z,77.79
2023-02-24T20:03:31.355Z,78.16
2023-02-24T20:05:58.888Z,78.41
2023-02-24T20:08:26.241Z,77.99
2023-02-24T20:11:01.152Z,78.05
2023-02-24T20:13:28.396Z,78.03
2023-02-24T20:16:10.547Z,78.54
2023-02-24T20:18:37.742Z,78.31
2023-02-24T20:21:04.742Z,78.74
2023-02-24T20:23:33.475Z,78.80
2023-02-24T20:26:00.884Z,78.66
2023-02-24T20:28:28.426Z,78.68
2023-02-24T20:30:56.508Z,78.62
2023-02-24T20:33:25.059Z,78.61
2023-02-24T20:35:52.924Z,78.45
2023-02-24T20:38:19.656Z,78.03
2023-02-24T20:40:55.547Z,78.25
2023-02-24T20:43:22.279Z,78.24
2023-02-24T20:45:50.075Z,77.71
2023-02-24T20:48:16.599Z,77.96
2023-02-24T20:50:43.566Z,77.43
2023-02-24T20:53:12.266Z,76.91
2023-02-24T20:55:38.835Z,77.59
2023-02-24T20:58:05.807Z,77.45
2023-02-24T21:00:34.299Z,78.93
2023-02-24T21:03:01.264Z,78.46
2023-02-24T21:05:28.855Z,78.18
2023-02-24T21:07:55.581Z,78.02
2023-02-24T21:10:23.149Z,77.98
2023-02-24T21:12:52.424Z,78.40
2023-02-24T21:15:19.914Z,78.70
2023-02-24T21:17:46.485Z,78.86
2023-02-24T21:20:13.694Z,79.20
2023-02-24T21:22:42.589Z,79.61
2023-02-24T21:25:11.626Z,80.17
2023-02-24T21:27:39.068Z,80.30
2023-02-24T21:30:08.773Z,80.20
2023-02-24T21:32:35.434Z,81.22
2023-02-24T21:35:02.394Z,81.60
2023-02-24T21:37:30.738Z,81.68
2023-02-24T21:39:57.334Z,81.79
2023-02-24T21:42:24.926Z,81.74
2023-02-24T21:44:52.681Z,81.84
2023-02-24T21:47:20.537Z,81.42
2023-02-24T21:49:47.265Z,81.31
2023-02-24T21:52:14.675Z,80.84
2023-02-24T21:54:42.403Z,81.16
2023-02-24T21:57:09.897Z,81.04
2023-02-24T21:59:36.613Z,81.01
2023-02-24T22:02:03.255Z,81.27
2023-02-24T22:04:29.892Z,81.15
2023-02-24T22:06:56.386Z,81.42
2023-02-24T22:09:23.021Z,81.45
2023-02-24T22:11:51.813Z,81.67
2023-02-24T22:14:23.857Z,81.97
2023-02-24T22:16:51.416Z,82.07
2023-02-24T22:19:19.726Z,82.30
2023-02-24T22:21:46.460Z,82.54
2023-02-24T22:24:14.492Z,82.42
2023-02-24T22:26:42.060Z,82.43
2023-02-24T22:29:09.913Z,82.80
2023-02-24T22:31:41.146Z,83.23
2023-02-24T22:34:08.718Z,83.44
2023-02-24T22:36:37.471Z,82.95
2023-02-24T22:39:05.972Z,83.14
2023-02-24T22:41:34.953Z,83.01
2023-02-24T22:44:05.692Z,83.43
2023-02-24T22:46:34.643Z,83.32
2023-02-24T22:49:01.821Z,83.23
2023-02-24T22:51:28.783Z,83.18
2023-02-24T22:53:56.900Z,83.62
2023-02-24T22:56:27.753Z,83.24
2023-02-24T22:58:56.126Z,82.97
2023-02-24T23:01:27.105Z,83.48
2023-02-24T23:03:55.731Z,83.36
2023-02-24T23:06:24.159Z,83.16
2023-02-24T23:08:52.598Z,82.78
2023-02-24T23:11:25.010Z,82.92
2023-02-24T23:13:53.147Z,83.39
2023-02-24T23:16:23.246Z,82.70
2023-02-24T23:18:52.938Z,83.29
2023-02-24T23:21:22.677Z,82.71
2023-02-24T23:23:51.760Z,82.49
2023-02-24T23:26:19.219Z,82.81
2023-02-24T23:28:47.079Z,83.21
2023-02-24T23:31:20.109Z,83.02
2023-02-24T23:33:47.786Z,82.64
2023-02-24T23:36:16.077Z,83.13
2023-02-24T23:38:43.310Z,83.15
2023-02-24T23:41:11.538Z,82.50
2023-02-24T23:43:38.908Z,82.68
2023-02-24T23:46:07.579Z,82.12
2023-02-24T23:48:34.533Z,82.72
2023-02-24T23:51:03.979Z,82.61
2023-02-24T23:53:31.952Z,82.44
2023-02-24T23:55:58.424Z,82.58
2023-02-24T23:58:26.730Z,82.37
